sensor_id;sensor_type;location;lat;lon;timestamp;temperature;humidity
65239;SHT30;51827;51.186;6.926;2023-06-19T00:00:49;22.86;60.46
65239;SHT30;51827;51.186;6.926;2023-06-19T00:01:49;22.86;60.49
65239;SHT30;51827;51.186;6.926;2023-06-19T00:02:49;22.88;60.48
65239;SHT30;51827;51.186;6.926;2023-06-19T00:03:49;22.88;60.34
65239;SHT30;51827;51.186;6.926;2023-06-19T00:04:50;22.88;60.32
65239;SHT30;51827;51.186;6.926;2023-06-19T00:05:50;22.89;60.35
65239;SHT30;51827;51.186;6.926;2023-06-19T00:06:50;22.88;60.24
65239;SHT30;51827;51.186;6.926;2023-06-19T00:07:50;22.86;60.18
65239;SHT30;51827;51.186;6.926;2023-06-19T00:08:51;22.88;59.96
65239;SHT30;51827;51.186;6.926;2023-06-19T00:09:51;22.89;60.00
65239;SHT30;51827;51.186;6.926;2023-06-19T00:10:51;22.89;60.00
65239;SHT30;51827;51.186;6.926;2023-06-19T00:11:51;22.89;60.06
65239;SHT30;51827;51.186;6.926;2023-06-19T00:12:52;22.88;59.95
65239;SHT30;51827;51.186;6.926;2023-06-19T00:13:52;22.89;59.83
65239;SHT30;51827;51.186;6.926;2023-06-19T00:14:52;22.91;59.83
65239;SHT30;51827;51.186;6.926;2023-06-19T00:15:52;22.91;59.66
65239;SHT30;51827;51.186;6.926;2023-06-19T00:16:53;22.88;59.90
65239;SHT30;51827;51.186;6.926;2023-06-19T00:17:53;22.89;59.87
65239;SHT30;51827;51.186;6.926;2023-06-19T00:18:53;22.86;59.76
65239;SHT30;51827;51.186;6.926;2023-06-19T00:19:53;22.89;59.71
65239;SHT30;51827;51.186;6.926;2023-06-19T00:20:54;22.88;59.56
65239;SHT30;51827;51.186;6.926;2023-06-19T00:21:54;22.88;59.39
65239;SHT30;51827;51.186;6.926;2023-06-19T00:22:54;22.86;59.39
65239;SHT30;51827;51.186;6.926;2023-06-19T00:23:55;22.86;59.34
65239;SHT30;51827;51.186;6.926;2023-06-19T00:24:55;22.88;59.40
65239;SHT30;51827;51.186;6.926;2023-06-19T00:25:55;22.88;59.38
65239;SHT30;51827;51.186;6.926;2023-06-19T00:26:56;22.88;59.25
65239;SHT30;51827;51.186;6.926;2023-06-19T00:27:56;22.86;59.33
65239;SHT30;51827;51.186;6.926;2023-06-19T00:28:56;22.85;59.19
65239;SHT30;51827;51.186;6.926;2023-06-19T00:29:57;22.84;59.32
65239;SHT30;51827;51.186;6.926;2023-06-19T00:30:57;22.85;59.53
65239;SHT30;51827;51.186;6.926;2023-06-19T00:31:59;22.84;59.41
65239;SHT30;51827;51.186;6.926;2023-06-19T00:32:59;22.85;59.47
65239;SHT30;51827;51.186;6.926;2023-06-19T00:33:59;22.84;59.63
65239;SHT30;51827;51.186;6.926;2023-06-19T00:34:59;22.85;59.54
65239;SHT30;51827;51.186;6.926;2023-06-19T00:36:00;22.84;59.56
65239;SHT30;51827;51.186;6.926;2023-06-19T00:37:00;22.82;59.52
65239;SHT30;51827;51.186;6.926;2023-06-19T00:38:00;22.82;59.57
65239;SHT30;51827;51.186;6.926;2023-06-19T00:39:00;22.81;59.62
65239;SHT30;51827;51.186;6.926;2023-06-19T00:40:00;22.79;59.59
65239;SHT30;51827;51.186;6.926;2023-06-19T00:41:01;22.79;59.53
65239;SHT30;51827;51.186;6.926;2023-06-19T00:42:01;22.81;59.51
65239;SHT30;51827;51.186;6.926;2023-06-19T00:43:02;22.78;59.54
65239;SHT30;51827;51.186;6.926;2023-06-19T00:44:02;22.78;59.35
65239;SHT30;51827;51.186;6.926;2023-06-19T00:45:02;22.79;59.36
65239;SHT30;51827;51.186;6.926;2023-06-19T00:46:03;22.79;59.31
65239;SHT30;51827;51.186;6.926;2023-06-19T00:47:04;22.79;59.44
65239;SHT30;51827;51.186;6.926;2023-06-19T00:48:05;22.78;59.51
65239;SHT30;51827;51.186;6.926;2023-06-19T00:49:06;22.79;59.54
65239;SHT30;51827;51.186;6.926;2023-06-19T00:50:06;22.76;60.07
65239;SHT30;51827;51.186;6.926;2023-06-19T00:51:07;22.75;59.95
65239;SHT30;51827;51.186;6.926;2023-06-19T00:52:07;22.73;59.93
65239;SHT30;51827;51.186;6.926;2023-06-19T00:53:08;22.72;59.90
65239;SHT30;51827;51.186;6.926;2023-06-19T00:54:08;22.75;59.97
65239;SHT30;51827;51.186;6.926;2023-06-19T00:55:09;22.73;60.00
65239;SHT30;51827;51.186;6.926;2023-06-19T00:56:09;22.71;60.21
65239;SHT30;51827;51.186;6.926;2023-06-19T00:57:10;22.69;60.38
65239;SHT30;51827;51.186;6.926;2023-06-19T00:58:11;22.66;60.48
65239;SHT30;51827;51.186;6.926;2023-06-19T00:59:18;22.65;60.52
65239;SHT30;51827;51.186;6.926;2023-06-19T01:00:18;22.64;60.67
65239;SHT30;51827;51.186;6.926;2023-06-19T01:01:19;22.56;61.29
65239;SHT30;51827;51.186;6.926;2023-06-19T01:02:20;22.55;61.21
65239;SHT30;51827;51.186;6.926;2023-06-19T01:03:23;22.54;61.18
65239;SHT30;51827;51.186;6.926;2023-06-19T01:04:24;22.52;61.36
65239;SHT30;51827;51.186;6.926;2023-06-19T01:05:25;22.51;61.24
65239;SHT30;51827;51.186;6.926;2023-06-19T01:06:33;22.48;61.64
65239;SHT30;51827;51.186;6.926;2023-06-19T01:09:01;22.49;61.73
65239;SHT30;51827;51.186;6.926;2023-06-19T01:10:05;22.48;61.57
65239;SHT30;51827;51.186;6.926;2023-06-19T01:11:07;22.49;61.59
65239;SHT30;51827;51.186;6.926;2023-06-19T01:12:18;22.49;61.59
65239;SHT30;51827;51.186;6.926;2023-06-19T01:13:34;22.49;61.57
65239;SHT30;51827;51.186;6.926;2023-06-19T01:14:39;22.52;61.56
65239;SHT30;51827;51.186;6.926;2023-06-19T01:15:42;22.54;61.52
65239;SHT30;51827;51.186;6.926;2023-06-19T01:16:42;22.52;61.52
65239;SHT30;51827;51.186;6.926;2023-06-19T01:17:45;22.52;61.41
65239;SHT30;51827;51.186;6.926;2023-06-19T01:18:46;22.52;61.51
65239;SHT30;51827;51.186;6.926;2023-06-19T01:19:47;22.48;62.08
65239;SHT30;51827;51.186;6.926;2023-06-19T01:20:49;22.48;61.90
65239;SHT30;51827;51.186;6.926;2023-06-19T01:21:49;22.47;61.85
65239;SHT30;51827;51.186;6.926;2023-06-19T01:22:49;22.47;61.88
65239;SHT30;51827;51.186;6.926;2023-06-19T01:23:49;22.45;62.07
65239;SHT30;51827;51.186;6.926;2023-06-19T01:24:50;22.44;61.97
65239;SHT30;51827;51.186;6.926;2023-06-19T01:25:50;22.44;62.04
65239;SHT30;51827;51.186;6.926;2023-06-19T01:26:53;22.45;61.95
65239;SHT30;51827;51.186;6.926;2023-06-19T01:27:53;22.44;61.99
65239;SHT30;51827;51.186;6.926;2023-06-19T01:28:54;22.45;62.26
65239;SHT30;51827;51.186;6.926;2023-06-19T01:29:55;22.41;62.21
65239;SHT30;51827;51.186;6.926;2023-06-19T01:30:58;22.41;62.39
65239;SHT30;51827;51.186;6.926;2023-06-19T01:32:04;22.40;62.45
65239;SHT30;51827;51.186;6.926;2023-06-19T01:33:15;22.40;62.50
65239;SHT30;51827;51.186;6.926;2023-06-19T01:34:17;22.34;62.88
65239;SHT30;51827;51.186;6.926;2023-06-19T01:35:19;22.32;62.86
65239;SHT30;51827;51.186;6.926;2023-06-19T01:36:23;22.32;62.82
65239;SHT30;51827;51.186;6.926;2023-06-19T01:37:25;22.34;62.64
65239;SHT30;51827;51.186;6.926;2023-06-19T01:38:25;22.34;62.77
65239;SHT30;51827;51.186;6.926;2023-06-19T01:39:26;22.30;62.91
65239;SHT30;51827;51.186;6.926;2023-06-19T01:40:27;22.30;62.94
65239;SHT30;51827;51.186;6.926;2023-06-19T01:41:29;22.31;62.86
65239;SHT30;51827;51.186;6.926;2023-06-19T01:42:30;22.24;62.95
65239;SHT30;51827;51.186;6.926;2023-06-19T01:43:31;22.27;62.87
65239;SHT30;51827;51.186;6.926;2023-06-19T01:44:32;22.24;62.97
65239;SHT30;51827;51.186;6.926;2023-06-19T01:45:33;22.22;63.22
65239;SHT30;51827;51.186;6.926;2023-06-19T01:46:36;22.24;63.01
65239;SHT30;51827;51.186;6.926;2023-06-19T01:47:36;22.21;63.04
65239;SHT30;51827;51.186;6.926;2023-06-19T01:48:38;22.27;63.04
65239;SHT30;51827;51.186;6.926;2023-06-19T01:49:38;22.22;63.04
65239;SHT30;51827;51.186;6.926;2023-06-19T01:50:38;22.21;62.95
65239;SHT30;51827;51.186;6.926;2023-06-19T01:51:39;22.22;62.94
65239;SHT30;51827;51.186;6.926;2023-06-19T01:52:39;22.21;63.02
65239;SHT30;51827;51.186;6.926;2023-06-19T01:53:40;22.22;63.03
65239;SHT30;51827;51.186;6.926;2023-06-19T01:54:40;22.22;63.02
65239;SHT30;51827;51.186;6.926;2023-06-19T01:55:40;22.18;63.05
65239;SHT30;51827;51.186;6.926;2023-06-19T01:56:41;22.18;63.12
65239;SHT30;51827;51.186;6.926;2023-06-19T01:57:41;22.17;62.98
65239;SHT30;51827;51.186;6.926;2023-06-19T01:58:41;22.18;62.97
65239;SHT30;51827;51.186;6.926;2023-06-19T01:59:42;22.18;63.03
65239;SHT30;51827;51.186;6.926;2023-06-19T02:00:42;22.17;63.00
65239;SHT30;51827;51.186;6.926;2023-06-19T02:01:42;22.14;63.10
65239;SHT30;51827;51.186;6.926;2023-06-19T02:02:42;22.15;63.16
65239;SHT30;51827;51.186;6.926;2023-06-19T02:03:43;22.12;63.27
65239;SHT30;51827;51.186;6.926;2023-06-19T02:04:43;22.14;63.56
65239;SHT30;51827;51.186;6.926;2023-06-19T02:05:43;22.08;63.22
65239;SHT30;51827;51.186;6.926;2023-06-19T02:06:43;22.07;63.50
65239;SHT30;51827;51.186;6.926;2023-06-19T02:07:44;22.04;63.60
65239;SHT30;51827;51.186;6.926;2023-06-19T02:08:44;22.05;63.40
65239;SHT30;51827;51.186;6.926;2023-06-19T02:09:44;22.05;63.17
65239;SHT30;51827;51.186;6.926;2023-06-19T02:10:44;22.01;63.82
65239;SHT30;51827;51.186;6.926;2023-06-19T02:11:45;21.96;63.77
65239;SHT30;51827;51.186;6.926;2023-06-19T02:12:45;21.93;63.75
65239;SHT30;51827;51.186;6.926;2023-06-19T02:13:45;21.94;63.84
65239;SHT30;51827;51.186;6.926;2023-06-19T02:14:45;21.90;64.40
65239;SHT30;51827;51.186;6.926;2023-06-19T02:15:46;21.91;63.79
65239;SHT30;51827;51.186;6.926;2023-06-19T02:16:46;21.94;63.74
65239;SHT30;51827;51.186;6.926;2023-06-19T02:17:46;21.97;63.73
65239;SHT30;51827;51.186;6.926;2023-06-19T02:18:46;21.97;63.71
65239;SHT30;51827;51.186;6.926;2023-06-19T02:19:47;21.98;63.49
65239;SHT30;51827;51.186;6.926;2023-06-19T02:20:47;22.00;63.61
65239;SHT30;51827;51.186;6.926;2023-06-19T02:21:47;22.02;63.35
65239;SHT30;51827;51.186;6.926;2023-06-19T02:22:47;22.07;63.29
65239;SHT30;51827;51.186;6.926;2023-06-19T02:23:48;22.07;63.05
65239;SHT30;51827;51.186;6.926;2023-06-19T02:24:48;22.12;62.92
65239;SHT30;51827;51.186;6.926;2023-06-19T02:25:48;22.17;63.13
65239;SHT30;51827;51.186;6.926;2023-06-19T02:26:48;22.17;62.86
65239;SHT30;51827;51.186;6.926;2023-06-19T02:27:49;22.18;62.75
65239;SHT30;51827;51.186;6.926;2023-06-19T02:28:49;22.18;62.76
65239;SHT30;51827;51.186;6.926;2023-06-19T02:29:49;22.20;63.09
65239;SHT30;51827;51.186;6.926;2023-06-19T02:30:49;22.18;63.16
65239;SHT30;51827;51.186;6.926;2023-06-19T02:31:50;22.14;63.25
65239;SHT30;51827;51.186;6.926;2023-06-19T02:32:50;22.11;63.37
65239;SHT30;51827;51.186;6.926;2023-06-19T02:33:50;22.10;63.81
65239;SHT30;51827;51.186;6.926;2023-06-19T02:34:51;22.11;63.30
65239;SHT30;51827;51.186;6.926;2023-06-19T02:35:51;22.08;63.54
65239;SHT30;51827;51.186;6.926;2023-06-19T02:36:51;22.10;63.52
65239;SHT30;51827;51.186;6.926;2023-06-19T02:37:51;22.05;64.10
65239;SHT30;51827;51.186;6.926;2023-06-19T02:38:52;22.04;63.71
65239;SHT30;51827;51.186;6.926;2023-06-19T02:39:52;22.08;63.76
65239;SHT30;51827;51.186;6.926;2023-06-19T02:40:52;22.08;63.88
65239;SHT30;51827;51.186;6.926;2023-06-19T02:41:52;22.05;63.67
65239;SHT30;51827;51.186;6.926;2023-06-19T02:42:53;22.08;63.60
65239;SHT30;51827;51.186;6.926;2023-06-19T02:43:53;22.08;63.71
65239;SHT30;51827;51.186;6.926;2023-06-19T02:44:53;22.11;63.63
65239;SHT30;51827;51.186;6.926;2023-06-19T02:45:54;22.10;63.57
65239;SHT30;51827;51.186;6.926;2023-06-19T02:46:54;22.08;63.48
65239;SHT30;51827;51.186;6.926;2023-06-19T02:47:54;22.12;63.74
65239;SHT30;51827;51.186;6.926;2023-06-19T02:48:54;22.11;63.42
65239;SHT30;51827;51.186;6.926;2023-06-19T02:49:55;22.10;63.69
65239;SHT30;51827;51.186;6.926;2023-06-19T02:50:55;22.10;63.73
65239;SHT30;51827;51.186;6.926;2023-06-19T02:51:55;22.11;63.53
65239;SHT30;51827;51.186;6.926;2023-06-19T02:52:55;22.12;63.48
65239;SHT30;51827;51.186;6.926;2023-06-19T02:53:56;22.14;63.88
65239;SHT30;51827;51.186;6.926;2023-06-19T02:54:56;22.15;63.56
65239;SHT30;51827;51.186;6.926;2023-06-19T02:55:56;22.17;63.15
65239;SHT30;51827;51.186;6.926;2023-06-19T02:56:56;22.18;63.04
65239;SHT30;51827;51.186;6.926;2023-06-19T02:57:57;22.18;63.30
65239;SHT30;51827;51.186;6.926;2023-06-19T02:58:57;22.20;63.30
65239;SHT30;51827;51.186;6.926;2023-06-19T02:59:57;22.21;63.37
65239;SHT30;51827;51.186;6.926;2023-06-19T03:00:57;22.24;62.84
65239;SHT30;51827;51.186;6.926;2023-06-19T03:01:58;22.22;63.24
65239;SHT30;51827;51.186;6.926;2023-06-19T03:02:58;22.25;63.37
65239;SHT30;51827;51.186;6.926;2023-06-19T03:03:58;22.25;62.97
65239;SHT30;51827;51.186;6.926;2023-06-19T03:04:58;22.25;62.89
65239;SHT30;51827;51.186;6.926;2023-06-19T03:05:58;22.22;63.50
65239;SHT30;51827;51.186;6.926;2023-06-19T03:06:59;22.25;62.86
65239;SHT30;51827;51.186;6.926;2023-06-19T03:07:59;22.25;63.36
65239;SHT30;51827;51.186;6.926;2023-06-19T03:08:59;22.25;63.17
65239;SHT30;51827;51.186;6.926;2023-06-19T03:09:59;22.24;62.91
65239;SHT30;51827;51.186;6.926;2023-06-19T03:11:00;22.25;62.90
65239;SHT30;51827;51.186;6.926;2023-06-19T03:12:00;22.24;63.00
65239;SHT30;51827;51.186;6.926;2023-06-19T03:13:00;22.27;63.32
65239;SHT30;51827;51.186;6.926;2023-06-19T03:14:01;22.25;63.11
65239;SHT30;51827;51.186;6.926;2023-06-19T03:15:01;22.24;63.08
65239;SHT30;51827;51.186;6.926;2023-06-19T03:16:01;22.24;63.60
65239;SHT30;51827;51.186;6.926;2023-06-19T03:17:02;22.18;64.06
65239;SHT30;51827;51.186;6.926;2023-06-19T03:18:02;22.18;64.25
65239;SHT30;51827;51.186;6.926;2023-06-19T03:19:02;22.11;64.18
65239;SHT30;51827;51.186;6.926;2023-06-19T03:20:03;22.14;64.34
65239;SHT30;51827;51.186;6.926;2023-06-19T03:21:03;22.14;64.40
65239;SHT30;51827;51.186;6.926;2023-06-19T03:22:04;22.07;64.49
65239;SHT30;51827;51.186;6.926;2023-06-19T03:23:04;22.10;64.46
65239;SHT30;51827;51.186;6.926;2023-06-19T03:24:04;22.08;64.60
65239;SHT30;51827;51.186;6.926;2023-06-19T03:25:05;22.01;64.79
65239;SHT30;51827;51.186;6.926;2023-06-19T03:26:05;21.98;64.89
65239;SHT30;51827;51.186;6.926;2023-06-19T03:27:06;21.98;64.84
65239;SHT30;51827;51.186;6.926;2023-06-19T03:28:06;21.98;64.84
65239;SHT30;51827;51.186;6.926;2023-06-19T03:29:06;21.97;64.99
65239;SHT30;51827;51.186;6.926;2023-06-19T03:30:07;21.96;64.94
65239;SHT30;51827;51.186;6.926;2023-06-19T03:31:07;21.96;64.99
65239;SHT30;51827;51.186;6.926;2023-06-19T03:32:08;21.96;64.93
65239;SHT30;51827;51.186;6.926;2023-06-19T03:33:08;21.93;65.11
65239;SHT30;51827;51.186;6.926;2023-06-19T03:34:08;21.87;65.42
65239;SHT30;51827;51.186;6.926;2023-06-19T03:35:08;21.86;65.50
65239;SHT30;51827;51.186;6.926;2023-06-19T03:36:09;21.84;65.55
65239;SHT30;51827;51.186;6.926;2023-06-19T03:37:09;21.77;65.88
65239;SHT30;51827;51.186;6.926;2023-06-19T03:38:09;21.77;65.91
65239;SHT30;51827;51.186;6.926;2023-06-19T03:39:10;21.76;66.27
65239;SHT30;51827;51.186;6.926;2023-06-19T03:40:10;21.71;66.38
65239;SHT30;51827;51.186;6.926;2023-06-19T03:41:10;21.67;66.48
65239;SHT30;51827;51.186;6.926;2023-06-19T03:42:11;21.70;66.46
65239;SHT30;51827;51.186;6.926;2023-06-19T03:43:11;21.69;66.65
65239;SHT30;51827;51.186;6.926;2023-06-19T03:44:11;21.63;67.00
65239;SHT30;51827;51.186;6.926;2023-06-19T03:45:12;21.60;66.84
65239;SHT30;51827;51.186;6.926;2023-06-19T03:46:12;21.51;67.56
65239;SHT30;51827;51.186;6.926;2023-06-19T03:47:13;21.53;67.71
65239;SHT30;51827;51.186;6.926;2023-06-19T03:48:14;21.53;67.46
65239;SHT30;51827;51.186;6.926;2023-06-19T03:49:15;21.53;67.60
65239;SHT30;51827;51.186;6.926;2023-06-19T03:50:15;21.51;67.65
65239;SHT30;51827;51.186;6.926;2023-06-19T03:51:15;21.51;67.64
65239;SHT30;51827;51.186;6.926;2023-06-19T03:52:16;21.49;67.79
65239;SHT30;51827;51.186;6.926;2023-06-19T03:53:16;21.49;67.91
65239;SHT30;51827;51.186;6.926;2023-06-19T03:54:16;21.53;67.86
65239;SHT30;51827;51.186;6.926;2023-06-19T03:55:17;21.51;67.94
65239;SHT30;51827;51.186;6.926;2023-06-19T03:56:20;21.51;67.88
65239;SHT30;51827;51.186;6.926;2023-06-19T03:57:20;21.40;68.50
65239;SHT30;51827;51.186;6.926;2023-06-19T03:58:21;21.40;68.58
65239;SHT30;51827;51.186;6.926;2023-06-19T03:59:21;21.39;68.60
65239;SHT30;51827;51.186;6.926;2023-06-19T04:00:21;21.39;68.51
65239;SHT30;51827;51.186;6.926;2023-06-19T04:01:21;21.46;68.42
65239;SHT30;51827;51.186;6.926;2023-06-19T04:02:21;21.46;68.40
65239;SHT30;51827;51.186;6.926;2023-06-19T04:03:22;21.43;68.64
65239;SHT30;51827;51.186;6.926;2023-06-19T04:04:22;21.42;68.77
65239;SHT30;51827;51.186;6.926;2023-06-19T04:05:22;21.42;68.64
65239;SHT30;51827;51.186;6.926;2023-06-19T04:06:23;21.43;68.70
65239;SHT30;51827;51.186;6.926;2023-06-19T04:07:23;21.43;68.71
65239;SHT30;51827;51.186;6.926;2023-06-19T04:08:23;21.39;68.99
65239;SHT30;51827;51.186;6.926;2023-06-19T04:09:23;21.36;69.05
65239;SHT30;51827;51.186;6.926;2023-06-19T04:10:24;21.36;69.35
65239;SHT30;51827;51.186;6.926;2023-06-19T04:11:24;21.35;69.40
65239;SHT30;51827;51.186;6.926;2023-06-19T04:12:24;21.35;69.42
65239;SHT30;51827;51.186;6.926;2023-06-19T04:13:25;21.35;69.36
65239;SHT30;51827;51.186;6.926;2023-06-19T04:14:25;21.32;69.28
65239;SHT30;51827;51.186;6.926;2023-06-19T04:15:25;21.32;69.58
65239;SHT30;51827;51.186;6.926;2023-06-19T04:16:25;21.26;69.74
65239;SHT30;51827;51.186;6.926;2023-06-19T04:17:26;21.26;69.75
65239;SHT30;51827;51.186;6.926;2023-06-19T04:18:26;21.25;70.01
65239;SHT30;51827;51.186;6.926;2023-06-19T04:19:26;21.22;69.97
65239;SHT30;51827;51.186;6.926;2023-06-19T04:20:27;21.23;70.05
65239;SHT30;51827;51.186;6.926;2023-06-19T04:21:27;21.23;69.81
65239;SHT30;51827;51.186;6.926;2023-06-19T04:22:27;21.26;69.68
65239;SHT30;51827;51.186;6.926;2023-06-19T04:23:27;21.27;69.93
65239;SHT30;51827;51.186;6.926;2023-06-19T04:24:27;21.27;69.96
65239;SHT30;51827;51.186;6.926;2023-06-19T04:25:28;21.29;69.82
65239;SHT30;51827;51.186;6.926;2023-06-19T04:26:28;21.33;69.57
65239;SHT30;51827;51.186;6.926;2023-06-19T04:27:28;21.39;69.35
65239;SHT30;51827;51.186;6.926;2023-06-19T04:28:28;21.45;69.04
65239;SHT30;51827;51.186;6.926;2023-06-19T04:29:29;21.49;68.75
65239;SHT30;51827;51.186;6.926;2023-06-19T04:30:30;21.54;68.40
65239;SHT30;51827;51.186;6.926;2023-06-19T04:31:30;21.60;68.10
65239;SHT30;51827;51.186;6.926;2023-06-19T04:32:30;21.66;67.78
65239;SHT30;51827;51.186;6.926;2023-06-19T04:33:30;21.70;67.47
65239;SHT30;51827;51.186;6.926;2023-06-19T04:34:31;21.77;67.36
65239;SHT30;51827;51.186;6.926;2023-06-19T04:35:31;21.81;67.17
65239;SHT30;51827;51.186;6.926;2023-06-19T04:36:32;21.87;66.95
65239;SHT30;51827;51.186;6.926;2023-06-19T04:37:32;21.90;66.52
65239;SHT30;51827;51.186;6.926;2023-06-19T04:38:32;21.91;66.14
65239;SHT30;51827;51.186;6.926;2023-06-19T04:39:32;22.00;65.95
65239;SHT30;51827;51.186;6.926;2023-06-19T04:40:33;22.01;65.82
65239;SHT30;51827;51.186;6.926;2023-06-19T04:41:33;22.05;65.73
65239;SHT30;51827;51.186;6.926;2023-06-19T04:42:33;22.08;65.48
65239;SHT30;51827;51.186;6.926;2023-06-19T04:43:33;22.12;65.34
65239;SHT30;51827;51.186;6.926;2023-06-19T04:44:34;22.14;65.16
65239;SHT30;51827;51.186;6.926;2023-06-19T04:45:34;22.18;65.26
65239;SHT30;51827;51.186;6.926;2023-06-19T04:46:34;22.21;65.15
65239;SHT30;51827;51.186;6.926;2023-06-19T04:47:35;22.24;65.07
65239;SHT30;51827;51.186;6.926;2023-06-19T04:48:35;22.22;64.90
65239;SHT30;51827;51.186;6.926;2023-06-19T04:49:35;22.27;64.76
65239;SHT30;51827;51.186;6.926;2023-06-19T04:50:36;22.27;64.67
65239;SHT30;51827;51.186;6.926;2023-06-19T04:51:36;22.31;64.53
65239;SHT30;51827;51.186;6.926;2023-06-19T04:52:36;22.31;64.52
65239;SHT30;51827;51.186;6.926;2023-06-19T04:53:39;22.32;64.22
65239;SHT30;51827;51.186;6.926;2023-06-19T04:54:40;22.32;64.14
65239;SHT30;51827;51.186;6.926;2023-06-19T04:55:40;22.37;64.17
65239;SHT30;51827;51.186;6.926;2023-06-19T04:56:40;22.38;64.19
65239;SHT30;51827;51.186;6.926;2023-06-19T04:57:40;22.40;63.99
65239;SHT30;51827;51.186;6.926;2023-06-19T04:58:41;22.41;63.76
65239;SHT30;51827;51.186;6.926;2023-06-19T04:59:44;22.42;63.84
65239;SHT30;51827;51.186;6.926;2023-06-19T05:00:47;22.44;63.65
65239;SHT30;51827;51.186;6.926;2023-06-19T05:01:47;22.44;63.74
65239;SHT30;51827;51.186;6.926;2023-06-19T05:02:47;22.45;63.77
65239;SHT30;51827;51.186;6.926;2023-06-19T05:03:48;22.45;63.69
65239;SHT30;51827;51.186;6.926;2023-06-19T05:04:48;22.48;63.69
65239;SHT30;51827;51.186;6.926;2023-06-19T05:05:48;22.48;63.65
65239;SHT30;51827;51.186;6.926;2023-06-19T05:06:49;22.47;63.44
65239;SHT30;51827;51.186;6.926;2023-06-19T05:07:50;22.49;63.53
65239;SHT30;51827;51.186;6.926;2023-06-19T05:08:50;22.49;63.48
65239;SHT30;51827;51.186;6.926;2023-06-19T05:09:51;22.49;63.51
65239;SHT30;51827;51.186;6.926;2023-06-19T05:10:51;22.52;63.45
65239;SHT30;51827;51.186;6.926;2023-06-19T05:11:51;22.54;63.36
65239;SHT30;51827;51.186;6.926;2023-06-19T05:12:51;22.55;63.22
65239;SHT30;51827;51.186;6.926;2023-06-19T05:13:52;22.54;63.21
65239;SHT30;51827;51.186;6.926;2023-06-19T05:14:52;22.55;63.11
65239;SHT30;51827;51.186;6.926;2023-06-19T05:15:52;22.54;63.04
65239;SHT30;51827;51.186;6.926;2023-06-19T05:16:53;22.54;63.08
65239;SHT30;51827;51.186;6.926;2023-06-19T05:17:53;22.56;62.97
65239;SHT30;51827;51.186;6.926;2023-06-19T05:18:54;22.56;62.83
65239;SHT30;51827;51.186;6.926;2023-06-19T05:19:54;22.58;62.84
65239;SHT30;51827;51.186;6.926;2023-06-19T05:20:54;22.55;62.84
65239;SHT30;51827;51.186;6.926;2023-06-19T05:21:55;22.61;62.93
65239;SHT30;51827;51.186;6.926;2023-06-19T05:22:55;22.59;62.87
65239;SHT30;51827;51.186;6.926;2023-06-19T05:23:55;22.61;62.76
65239;SHT30;51827;51.186;6.926;2023-06-19T05:24:55;22.61;62.72
65239;SHT30;51827;51.186;6.926;2023-06-19T05:25:55;22.61;62.76
65239;SHT30;51827;51.186;6.926;2023-06-19T05:26:56;22.59;62.77
65239;SHT30;51827;51.186;6.926;2023-06-19T05:27:56;22.59;62.55
65239;SHT30;51827;51.186;6.926;2023-06-19T05:28:56;22.62;62.63
65239;SHT30;51827;51.186;6.926;2023-06-19T05:29:56;22.62;62.50
65239;SHT30;51827;51.186;6.926;2023-06-19T05:30:57;22.62;62.42
65239;SHT30;51827;51.186;6.926;2023-06-19T05:31:57;22.62;62.50
65239;SHT30;51827;51.186;6.926;2023-06-19T05:32:57;22.62;62.40
65239;SHT30;51827;51.186;6.926;2023-06-19T05:33:57;22.64;62.31
65239;SHT30;51827;51.186;6.926;2023-06-19T05:34:58;22.64;62.39
65239;SHT30;51827;51.186;6.926;2023-06-19T05:35:58;22.65;62.29
65239;SHT30;51827;51.186;6.926;2023-06-19T05:36:58;22.66;62.35
65239;SHT30;51827;51.186;6.926;2023-06-19T05:37:58;22.64;62.35
65239;SHT30;51827;51.186;6.926;2023-06-19T05:38:59;22.64;62.32
65239;SHT30;51827;51.186;6.926;2023-06-19T05:39:59;22.64;62.24
65239;SHT30;51827;51.186;6.926;2023-06-19T05:40:59;22.65;62.20
65239;SHT30;51827;51.186;6.926;2023-06-19T05:41:59;22.66;62.15
65239;SHT30;51827;51.186;6.926;2023-06-19T05:43:00;22.65;62.15
65239;SHT30;51827;51.186;6.926;2023-06-19T05:44:00;22.68;62.11
65239;SHT30;51827;51.186;6.926;2023-06-19T05:45:00;22.66;62.16
65239;SHT30;51827;51.186;6.926;2023-06-19T05:46:01;22.66;61.98
65239;SHT30;51827;51.186;6.926;2023-06-19T05:47:01;22.66;61.99
65239;SHT30;51827;51.186;6.926;2023-06-19T05:48:01;22.69;61.97
65239;SHT30;51827;51.186;6.926;2023-06-19T05:49:01;22.69;61.96
65239;SHT30;51827;51.186;6.926;2023-06-19T05:50:02;22.68;61.82
65239;SHT30;51827;51.186;6.926;2023-06-19T05:51:02;22.68;61.73
65239;SHT30;51827;51.186;6.926;2023-06-19T05:52:02;22.68;61.78
65239;SHT30;51827;51.186;6.926;2023-06-19T05:53:03;22.71;61.84
65239;SHT30;51827;51.186;6.926;2023-06-19T05:54:03;22.68;61.83
65239;SHT30;51827;51.186;6.926;2023-06-19T05:55:04;22.71;61.69
65239;SHT30;51827;51.186;6.926;2023-06-19T05:56:04;22.69;61.59
65239;SHT30;51827;51.186;6.926;2023-06-19T05:57:05;22.71;61.74
65239;SHT30;51827;51.186;6.926;2023-06-19T05:58:06;22.69;61.55
65239;SHT30;51827;51.186;6.926;2023-06-19T05:59:06;22.69;61.43
65239;SHT30;51827;51.186;6.926;2023-06-19T06:00:06;22.71;61.52
65239;SHT30;51827;51.186;6.926;2023-06-19T06:01:07;22.71;61.57
65239;SHT30;51827;51.186;6.926;2023-06-19T06:02:07;22.72;61.53
65239;SHT30;51827;51.186;6.926;2023-06-19T06:03:08;22.72;61.39
65239;SHT30;51827;51.186;6.926;2023-06-19T06:04:08;22.72;61.46
65239;SHT30;51827;51.186;6.926;2023-06-19T06:05:08;22.71;61.38
65239;SHT30;51827;51.186;6.926;2023-06-19T06:06:09;22.73;61.36
65239;SHT30;51827;51.186;6.926;2023-06-19T06:07:09;22.73;61.35
65239;SHT30;51827;51.186;6.926;2023-06-19T06:08:09;22.72;61.43
65239;SHT30;51827;51.186;6.926;2023-06-19T06:09:10;22.73;61.43
65239;SHT30;51827;51.186;6.926;2023-06-19T06:10:10;22.72;61.25
65239;SHT30;51827;51.186;6.926;2023-06-19T06:11:11;22.75;61.21
65239;SHT30;51827;51.186;6.926;2023-06-19T06:12:11;22.73;61.32
65239;SHT30;51827;51.186;6.926;2023-06-19T06:13:11;22.75;61.28
65239;SHT30;51827;51.186;6.926;2023-06-19T06:14:11;22.75;61.17
65239;SHT30;51827;51.186;6.926;2023-06-19T06:15:12;22.75;61.10
65239;SHT30;51827;51.186;6.926;2023-06-19T06:16:12;22.72;61.13
65239;SHT30;51827;51.186;6.926;2023-06-19T06:17:12;22.75;61.08
65239;SHT30;51827;51.186;6.926;2023-06-19T06:18:12;22.76;61.14
65239;SHT30;51827;51.186;6.926;2023-06-19T06:19:13;22.73;61.09
65239;SHT30;51827;51.186;6.926;2023-06-19T06:20:13;22.75;60.97
65239;SHT30;51827;51.186;6.926;2023-06-19T06:21:13;22.76;61.00
65239;SHT30;51827;51.186;6.926;2023-06-19T06:22:13;22.76;61.10
65239;SHT30;51827;51.186;6.926;2023-06-19T06:23:13;22.76;60.99
65239;SHT30;51827;51.186;6.926;2023-06-19T06:24:14;22.76;60.91